ADDS METAR Data INFO
IDs: Format: Raw Decoded Include TAF

Data at: 2114 UTC 22 Oct 2017

KROG 222058Z 01009KT 10SM FEW026 14/08 A3014 RMK AO2 SLP201 60000 T01440083 57002 $
KROG 222025Z 34009G16KT 10SM SCT026 13/08 A3014 RMK AO2 $
KROG 222010Z 34009KT 310V010 10SM BKN024 BKN095 13/08 A3014 RMK AO2 $
KROG 221958Z 36008G16KT 10SM SCT019 SCT025 BKN095 13/08 A3014 RMK AO2 SLP203 T01330078 $
KROG 221954Z 35010G17KT 10SM SCT019 SCT025 BKN095 13/08 A3014 RMK AO2 $
KROG 221858Z 32010KT 10SM BKN016 BKN023 OVC085 12/09 A3014 RMK AO2 RAB19E41 SLP203 P0000 T01220094 $
KROG 221849Z 33010KT 10SM SCT012 BKN020 OVC085 13/09 A3013 RMK AO2 RAB19E41 P0000 $
KROG 221821Z 33006KT 10SM -RA BKN011 OVC015 12/10 A3014 RMK AO2 RAB19 P0000 $
KROG 221814Z 34007KT 10SM SCT009 OVC015 11/10 A3014 RMK AO2 $
KROG 221758Z 33007KT 10SM OVC009 11/09 A3014 RMK AO2 RAB24E36 CIG 006V013 SLP205 P0000 60021 T01060094 10133 20106 51013 $
KROG 221646Z 34008KT 10SM -RA BKN007 OVC011 11/11 A3013 RMK AO2 RAB02 CIG 004V010 P0002 $
KROG 221558Z 32011KT 10SM OVC005 11/10 A3013 RMK AO2 RAE12 SLP197 P0000 T01110100 $
KROG 221548Z 32009KT 10SM OVC005 11/11 A3013 RMK AO2 RAE12 P0000 $
KROG 221458Z 34009KT 8SM -RA BKN007 OVC012 11/11 A3010 RMK AO2 CIG 004V009 SLP187 P0002 60019 T01110106 51030 $
KROG 221442Z 33006KT 3SM -RA BR BKN007 OVC012 11/11 A3011 RMK AO2 CIG 004V009 P0002 $
KROG 221358Z 31009KT 3SM -RA BR OVC005 12/11 A3008 RMK AO2 CIG 003V008 SLP179 P0007 T01170111 $
KROG 221353Z 30008KT 4SM -RA BR BKN005 OVC015 12/11 A3008 RMK AO2 CIG 003V008 P0007 $
KROG 221343Z 30010KT 2SM -RA BR BKN005 OVC016 12/11 A3007 RMK AO2 CIG 003V008 P0006 $
KROG 221328Z 30007KT 1 3/4SM -RA BR BKN005 OVC009 12/12 A3007 RMK AO2 P0004 $
KROG 221317Z 31006KT 2SM -RA BR OVC005 12/12 A3006 RMK AO2 P0002 $
KROG 221258Z 29007KT 1 1/2SM -RA BR BKN005 OVC020 12/12 A3005 RMK AO2 CIG 003V007 SLP169 P0010 T01220117 $
KROG 221246Z AUTO 31008KT 1 1/2SM -RA BR BKN005 BKN013 OVC020 12/12 A3004 RMK AO2 CIG 003V009 P0008 $
KROG 221234Z AUTO 30008KT 2 1/2SM RA BR BKN005 BKN008 OVC013 13/12 A3004 RMK AO2 VIS 2V3 P0006 $
KROG 221158Z AUTO 29005KT 10SM -RA OVC005 13/13 A3001 RMK AO2 CIG 003V007 SLP155 P0005 60114 70220 T01330133 10144 20133 51015 $
KROG 221156Z AUTO 30005KT 10SM -RA OVC005 13/13 A3001 RMK AO2 CIG 002V007 P0005 $
KROG 221136Z AUTO 28009KT 10SM -RA BKN003 BKN016 OVC090 13/13 A3001 RMK AO2 P0004 $
KROG 221122Z AUTO 29005KT 10SM -RA FEW003 SCT030 OVC090 13/13 A3001 RMK AO2 P0004 $
KROG 221105Z AUTO 00000KT 10SM RA FEW016 BKN060 OVC085 13/13 A3000 RMK AO2 P0002 $
KROG 221058Z AUTO 26003KT 10SM -RA SCT016 BKN027 OVC080 13/13 A3000 RMK AO2 SLP151 P0013 T01330133 $
KROG 221051Z AUTO 30004KT 10SM -RA SCT016 BKN028 OVC060 13/13 A3000 RMK AO2 P0012 $
KROG 220958Z AUTO 00000KT 8SM RA BKN050 OVC065 14/13 A2997 RMK AO2 TSB05E20 SLP137 P0025 T01390133 $
KROG 220923Z AUTO 12004KT 7SM RA FEW049 OVC065 14/13 A2996 RMK AO2 LTG DSNT SW-N TSB05E20 P0010 $
KROG 220908Z AUTO 10006KT 9SM VCTS RA BKN060 OVC070 14/13 A2996 RMK AO2 LTG DSNT ALQDS TSB05 P0003 $
KROG 220858Z AUTO 09006KT 9SM RA OVC055 14/13 A2997 RMK AO2 LTG DSNT ALQDS TSE29B33E55 SLP138 P0031 60071 T01390133 50003 $
KROG 220836Z AUTO 05005KT 10SM VCTS RA FEW012 BKN049 OVC060 14/13 A2998 RMK AO2 LTG DSNT ALQDS TSE29B33 P0022 $
KROG 220829Z AUTO 04005KT 10SM RA SCT012 OVC050 14/14 A2999 RMK AO2 LTG DSNT ALQDS TSE29 PRESFR P0018 $
KROG 220805Z AUTO 36003KT 7SM VCTS RA SCT007 BKN016 OVC033 14/14 A3001 RMK AO2 LTG DSNT ALQDS P0004 $
KROG 220758Z AUTO 00000KT 4SM VCTS RA BR SCT007 BKN014 OVC019 14/14 A3003 RMK AO2 LTG DSNT ALQDS SLP158 P0029 T01440139 $
KROG 220754Z AUTO 00000KT 5SM VCTS RA BR SCT007 OVC016 14/14 A3002 RMK AO2 LTG DSNT ALQDS P0027 $
KROG 220746Z AUTO 34003KT 7SM +TSRA BKN009 BKN013 OVC060 14/14 A3002 RMK AO2 LTG DSNT ALQDS CIG 004V010 P0023 $
KROG 220736Z AUTO 21008KT 10SM TSRA BKN013 BKN060 OVC085 14/14 A3003 RMK AO2 LTG DSNT ALQDS P0014 $
KROG 220658Z AUTO 28004KT 10SM VCTS RA SCT049 OVC070 14/13 A2998 RMK AO2 LTG DSNT ALQDS SLP141 P0011 T01390133 $
KROG 220632Z AUTO 27005KT 10SM TSRA SCT012 BKN050 OVC070 14/13 A2997 RMK AO2 LTG DSNT ALQDS P0005 $
KROG 220628Z AUTO VRB04KT 10SM TSRA FEW009 BKN014 OVC070 14/13 A2997 RMK AO2 LTG DSNT ALQDS P0004 $
KROG 220615Z AUTO 26005KT 10SM TSRA BKN011 BKN034 OVC070 14/13 A2997 RMK AO2 LTG DSNT ALQDS CIG 005V021 P0001 $
KROG 220609Z AUTO 26006KT 10SM -TSRA BKN009 BKN034 OVC055 14/13 A2997 RMK AO2 LTG DSNT ALQDS CIG 004V019 P0001 $
KROG 220558Z AUTO 32004KT 10SM VCTS -RA SCT006 BKN011 OVC034 14/13 A2996 RMK AO2 PK WND 32043/0503 WSHFT 0501 LTG DSNT ALQDS TSB0459RAB06 SLP135 P0106 60106 T01390133 10222 20139 53012 $
KROG 220541Z AUTO 30007G15KT 3SM +TSRA BR FEW006 BKN011 OVC019 14/13 A2997 RMK AO2 PK WND 32043/0503 WSHFT 0501 LTG DSNT ALQDS TSB0459RAB06 P0096 $
KROG 220535Z AUTO 32009G17KT 2 1/2SM +TSRA BR SCT009 OVC014 14/13 A2997 RMK AO2 PK WND 32043/0503 WSHFT 0501 LTG DSNT ALQDS TSB0459RAB06 P0084 $
KROG 220531Z AUTO 29012G17KT 2 1/2SM +TSRA BR BKN012 OVC020 14/13 A3000 RMK AO2 PK WND 32043/0503 WSHFT 0501 LTG DSNT ALQDS TSB0459RAB06 PRESRR P0071 $
KROG 220518Z AUTO 32020G39KT 3SM +TSRA BR FEW012 BKN021 OVC028 14/13 A2994 RMK AO2 PK WND 32043/0503 WSHFT 0501 LTG DSNT SW-N TSB0459RAB06 PRESRR P0019 $
KROG 220506Z AUTO 32028G43KT 7SM VCTS -RA SQ SCT022 BKN026 OVC050 19/13 A2993 RMK AO2 PK WND 32043/0503 LTG DSNT SW-N TSB0459RAB06 PRESRR P0000 $
KROG 220502Z AUTO 34024G37KT 320V030 10SM VCTS FEW019 BKN026 OVC065 22/18 A2990 RMK AO2 PK WND 32037/0502 LTG DSNT SW-N TSB0459 $
KROG 220458Z AUTO 14008KT 10SM BKN026 BKN060 OVC075 22/19 A2988 RMK AO2 LTG DSNT W-N SLP106 T02220189 402560172 $
KROG 220427Z AUTO 16009KT 10SM BKN026 OVC070 22/19 A2990 RMK AO2 LTG DSNT W-N $
KROG 220358Z AUTO 15012G16KT 10SM OVC065 22/19 A2991 RMK AO2 SLP115 T02220189 $
KROG 220258Z AUTO 15010KT 10SM FEW055 BKN065 22/19 A2992 RMK AO2 SLP119 T02220189 53002 $
KROG 220158Z AUTO 14010KT 10SM FEW043 21/18 A2990 RMK AO2 SLP114 T02110183 $
KROG 220058Z AUTO 15011KT 10SM FEW025 22/18 A2991 RMK AO2 SLP118 T02170183 $
KROG 212358Z 14010KT 10SM FEW030 BKN044 22/18 A2992 RMK AO2 SLP119 T02220178 10256 20222 55002 $
KROG 212258Z 14009KT 10SM BKN039 BKN049 23/18 A2991 RMK AO2 SLP117 T02330178 $
KROG 212158Z 16012KT 10SM SCT037 BKN046 24/18 A2992 RMK AO2 SLP119 T02440178 $
KROG 212058Z 18016G23KT 10SM BKN036 25/17 A2992 RMK AO2 SLP121 T02500172 56013 $
KROG 211958Z 18015G22KT 10SM OVC032 24/18 A2993 RMK AO2 PK WND 20026/1926 SLP122 T02440178 $
KROG 211858Z 17019G28KT 10SM BKN035 OVC042 25/17 A2993 RMK AO2 PK WND 16028/1855 SLP124 T02500172 $
KROG 211758Z 18021KT 10SM SCT030 24/18 A2996 RMK AO2 PK WND 17028/1732 SLP134 T02440178 10250 20178 58014 $
KROG 211658Z 17015G25KT 10SM SCT026 BKN060 24/17 A2998 RMK AO2 PK WND 17027/1633 SLP142 T02390172 $
KROG 211558Z 18015G25KT 10SM FEW024 BKN055 23/17 A2999 RMK AO2 PK WND 17026/1514 SLP146 T02330172 $
KROG 211546Z 18017G25KT 10SM SCT024 BKN055 23/17 A3000 RMK AO2 PK WND 17026/1514 $
KROG 211539Z 17014G23KT 10SM BKN024 BKN055 23/17 A3000 RMK AO2 PK WND 17026/1514 $
KROG 211458Z 18014G18KT 10SM SCT031 OVC055 23/17 A3000 RMK AO2 SLP149 T02280172 51013 $
KROG 211358Z 18010KT 10SM OVC050 21/17 A3000 RMK AO2 SLP148 T02060167 $
KROG 211258Z 15007KT 10SM CLR 18/16 A2997 RMK AO2 SLP141 T01780156 $
KROG 211204Z AUTO 14009KT 10SM SCT029 18/15 A2996 RMK AO2 $
KROG 211158Z AUTO 14011KT 10SM BKN029 18/15 A2996 RMK AO2 SLP137 T01780150 10178 20172 55007 $
KROG 211142Z AUTO 15011KT 10SM BKN029 18/15 A2996 RMK AO2 $
KROG 211058Z AUTO 15010KT 10SM FEW055 18/15 A2996 RMK AO2 SLP136 T01780150 $
KROG 210958Z AUTO 15010KT 10SM FEW060 18/14 A2996 RMK AO2 SLP136 T01780144 $